createdAt,value
2022-09-03T00:00:26.698Z,99.90
2022-09-03T00:03:14.715Z,99.90
2022-09-03T00:05:55.602Z,99.90
2022-09-03T00:08:37.098Z,99.90
2022-09-03T00:11:23.754Z,99.90
2022-09-03T00:14:01.046Z,99.90
2022-09-03T00:16:31.623Z,99.90
2022-09-03T00:19:04.943Z,99.90
2022-09-03T00:21:40.694Z,99.90
2022-09-03T00:24:14.376Z,99.90
2022-09-03T00:26:50.103Z,99.90
2022-09-03T00:29:26.290Z,99.90
2022-09-03T00:32:08.686Z,99.90
2022-09-03T00:34:41.661Z,99.90
2022-09-03T00:37:14.404Z,99.90
2022-09-03T00:39:43.577Z,99.90
2022-09-03T00:42:17.446Z,99.90
2022-09-03T00:45:10.300Z,99.90
2022-09-03T00:48:09.390Z,99.90
2022-09-03T00:51:01.223Z,99.90
2022-09-03T00:53:41.380Z,99.90
2022-09-03T00:56:26.557Z,99.90
2022-09-03T00:59:45.700Z,99.90
2022-09-03T01:02:29.796Z,99.90
2022-09-03T01:05:09.738Z,99.90
2022-09-03T01:07:59.685Z,99.90
2022-09-03T01:10:39.903Z,99.90
2022-09-03T01:13:25.238Z,99.90
2022-09-03T01:16:13.639Z,99.90
2022-09-03T01:19:09.422Z,99.90
2022-09-03T01:22:00.018Z,99.90
2022-09-03T01:24:46.413Z,99.90
2022-09-03T01:27:38.958Z,99.90
2022-09-03T01:30:09.672Z,99.90
2022-09-03T01:32:59.805Z,99.90
2022-09-03T01:35:46.962Z,99.90
2022-09-03T01:38:35.969Z,99.90
2022-09-03T01:41:46.230Z,99.90
2022-09-03T01:44:39.797Z,99.90
2022-09-03T01:47:29.868Z,99.90
2022-09-03T01:50:10.980Z,99.90
2022-09-03T01:52:45.268Z,99.90
2022-09-03T01:55:32.609Z,99.90
2022-09-03T01:58:15.781Z,99.90
2022-09-03T02:00:49.622Z,99.90
2022-09-03T02:03:18.224Z,99.90
2022-09-03T02:05:48.123Z,99.90
2022-09-03T02:08:16.375Z,99.90
2022-09-03T02:11:02.619Z,99.90
2022-09-03T02:13:43.069Z,99.90
2022-09-03T02:16:24.681Z,99.90
2022-09-03T02:18:58.545Z,99.90
2022-09-03T02:21:31.041Z,99.90
2022-09-03T02:23:59.205Z,99.90
2022-09-03T02:26:27.402Z,99.90
2022-09-03T02:28:58.719Z,99.90
2022-09-03T02:31:28.133Z,99.90
2022-09-03T02:33:57.945Z,99.90
2022-09-03T02:36:32.999Z,99.90
2022-09-03T02:39:01.281Z,99.90
2022-09-03T02:41:29.148Z,99.90
2022-09-03T02:44:07.667Z,99.90
2022-09-03T02:46:56.293Z,99.90
2022-09-03T02:49:24.598Z,99.90
2022-09-03T02:51:52.547Z,99.90
2022-09-03T02:54:21.294Z,99.90
2022-09-03T02:56:49.996Z,99.90
2022-09-03T02:59:18.416Z,99.90
2022-09-03T03:01:46.851Z,99.90
2022-09-03T03:04:15.200Z,99.90
2022-09-03T03:06:42.880Z,99.90
2022-09-03T03:09:15.762Z,99.90
2022-09-03T03:11:44.207Z,99.90
2022-09-03T03:14:12.635Z,99.90
2022-09-03T03:16:40.633Z,99.90
2022-09-03T03:19:08.828Z,99.90
2022-09-03T03:21:37.342Z,99.90
2022-09-03T03:24:05.280Z,99.90
2022-09-03T03:26:35.785Z,99.90
2022-09-03T03:29:07.321Z,99.90
2022-09-03T03:31:35.396Z,99.90
2022-09-03T03:34:04.316Z,99.90
2022-09-03T03:36:33.941Z,99.90
2022-09-03T03:39:03.369Z,99.90
2022-09-03T03:41:33.984Z,99.90
2022-09-03T03:44:05.189Z,99.90
2022-09-03T03:46:39.145Z,99.90
2022-09-03T03:49:08.095Z,99.90
2022-09-03T03:51:38.434Z,99.90
2022-09-03T03:54:07.122Z,99.90
2022-09-03T03:56:36.010Z,99.90
2022-09-03T03:59:05.000Z,99.90
2022-09-03T04:01:33.212Z,99.90
2022-09-03T04:04:01.409Z,99.90
2022-09-03T04:06:30.127Z,99.90
2022-09-03T04:08:58.618Z,99.90
2022-09-03T04:11:30.384Z,99.90
2022-09-03T04:13:59.037Z,99.90
2022-09-03T04:16:28.885Z,99.90
2022-09-03T04:18:57.983Z,99.90
2022-09-03T04:21:31.762Z,99.90
2022-09-03T04:24:00.240Z,99.90
2022-09-03T04:26:33.774Z,99.90
2022-09-03T04:29:05.545Z,99.90
2022-09-03T04:31:35.318Z,99.90
2022-09-03T04:34:06.238Z,99.90
2022-09-03T04:36:35.600Z,99.90
2022-09-03T04:39:04.516Z,99.90
2022-09-03T04:41:35.323Z,99.90
2022-09-03T04:44:04.228Z,99.90
2022-09-03T04:46:36.283Z,99.90
2022-09-03T04:49:04.849Z,99.90
2022-09-03T04:51:33.949Z,99.90
2022-09-03T04:54:04.202Z,99.90
2022-09-03T04:56:35.408Z,99.90
2022-09-03T04:59:08.184Z,99.90
2022-09-03T05:01:39.207Z,99.90
2022-09-03T05:04:09.145Z,99.90
2022-09-03T05:06:39.044Z,99.90
2022-09-03T05:09:08.876Z,99.90
2022-09-03T05:11:39.408Z,99.90
2022-09-03T05:14:12.750Z,99.90
2022-09-03T05:16:41.960Z,99.90
2022-09-03T05:19:11.302Z,99.90
2022-09-03T05:21:39.974Z,99.90
2022-09-03T05:24:08.467Z,99.90
2022-09-03T05:26:40.312Z,99.90
2022-09-03T05:29:09.186Z,99.90
2022-09-03T05:31:39.738Z,99.90
2022-09-03T05:34:11.240Z,99.90
2022-09-03T05:36:48.361Z,99.90
2022-09-03T05:39:17.044Z,99.90
2022-09-03T05:41:45.149Z,99.90
2022-09-03T05:44:13.627Z,99.90
2022-09-03T05:46:44.005Z,99.90
2022-09-03T05:49:12.401Z,99.90
2022-09-03T05:51:40.583Z,99.90
2022-09-03T05:54:09.710Z,99.90
2022-09-03T05:56:40.833Z,99.90
2022-09-03T05:59:10.091Z,99.90
2022-09-03T06:01:50.644Z,99.90
2022-09-03T06:04:21.452Z,99.90
2022-09-03T06:06:54.021Z,99.90
2022-09-03T06:09:23.813Z,99.90
2022-09-03T06:11:52.727Z,99.90
2022-09-03T06:14:22.535Z,99.90
2022-09-03T06:16:53.428Z,99.90
2022-09-03T06:19:22.621Z,99.90
2022-09-03T06:21:51.125Z,99.90
2022-09-03T06:24:28.034Z,99.90
2022-09-03T06:26:59.999Z,99.90
2022-09-03T06:29:29.771Z,99.90
2022-09-03T06:31:59.036Z,99.90
2022-09-03T06:34:28.099Z,99.90
2022-09-03T06:36:56.379Z,99.90
2022-09-03T06:39:26.209Z,99.90
2022-09-03T06:41:55.693Z,99.90
2022-09-03T06:44:37.148Z,99.90
2022-09-03T06:47:05.545Z,99.90
2022-09-03T06:49:34.415Z,99.90
2022-09-03T06:52:03.229Z,99.90
2022-09-03T06:54:30.864Z,99.90
2022-09-03T06:56:58.745Z,99.90
2022-09-03T06:59:26.922Z,99.90
2022-09-03T07:01:54.546Z,99.90
2022-09-03T07:04:25.028Z,99.90
2022-09-03T07:06:52.762Z,99.90
2022-09-03T07:09:20.326Z,99.90
2022-09-03T07:11:48.941Z,99.90
2022-09-03T07:14:20.988Z,99.90
2022-09-03T07:16:50.263Z,99.90
2022-09-03T07:19:18.163Z,99.90
2022-09-03T07:21:49.733Z,99.90
2022-09-03T07:24:18.498Z,99.90
2022-09-03T07:26:48.848Z,99.90
2022-09-03T07:29:20.689Z,99.90
2022-09-03T07:31:51.971Z,99.90
2022-09-03T07:34:22.245Z,99.90
2022-09-03T07:36:51.987Z,99.90
2022-09-03T07:39:19.998Z,99.90
2022-09-03T07:41:48.013Z,99.90
2022-09-03T07:44:20.007Z,99.90
2022-09-03T07:46:51.615Z,99.90
2022-09-03T07:49:22.599Z,99.90
2022-09-03T07:51:53.324Z,99.90
2022-09-03T07:54:22.363Z,99.90
2022-09-03T07:56:49.760Z,99.90
2022-09-03T07:59:17.302Z,99.90
2022-09-03T08:01:44.661Z,99.90
2022-09-03T08:04:12.187Z,99.90
2022-09-03T08:06:40.390Z,99.90
2022-09-03T08:09:10.546Z,99.90
2022-09-03T08:11:41.762Z,99.90
2022-09-03T08:14:11.741Z,99.90
2022-09-03T08:16:42.354Z,99.90
2022-09-03T08:19:11.606Z,99.90
2022-09-03T08:21:42.126Z,99.90
2022-09-03T08:24:11.513Z,99.90
2022-09-03T08:26:46.357Z,99.90
2022-09-03T08:29:18.019Z,99.90
2022-09-03T08:31:45.524Z,99.90
2022-09-03T08:34:14.816Z,99.90
2022-09-03T08:36:42.852Z,99.90
2022-09-03T08:39:11.534Z,99.90
2022-09-03T08:41:50.897Z,99.90
2022-09-03T08:44:33.301Z,99.90
2022-09-03T08:47:02.666Z,99.90
2022-09-03T08:49:46.512Z,99.90
2022-09-03T08:52:33.167Z,99.90
2022-09-03T08:55:27.441Z,99.90
2022-09-03T08:58:16.630Z,99.90
2022-09-03T09:01:04.406Z,99.90
2022-09-03T09:03:50.223Z,99.90
2022-09-03T09:06:42.259Z,99.90
2022-09-03T09:09:12.473Z,99.90
2022-09-03T09:12:11.685Z,99.90
2022-09-03T09:15:06.133Z,99.90
2022-09-03T09:17:54.654Z,99.90
2022-09-03T09:20:48.890Z,99.90
2022-09-03T09:23:29.945Z,99.90
2022-09-03T09:26:01.396Z,99.90
2022-09-03T09:28:36.166Z,99.90
2022-09-03T09:31:05.475Z,99.90
2022-09-03T09:33:33.412Z,99.90
2022-09-03T09:36:05.397Z,97.90
2022-09-03T09:38:38.988Z,98.00
2022-09-03T09:41:29.148Z,98.20
2022-09-03T09:44:02.269Z,92.60
2022-09-03T09:46:39.539Z,91.40
2022-09-03T09:49:36.201Z,87.10
2022-09-03T09:52:08.485Z,76.50
2022-09-03T09:54:35.720Z,75.30
2022-09-03T09:57:14.672Z,79.20
2022-09-03T09:59:42.025Z,71.80
2022-09-03T10:02:22.459Z,74.00
2022-09-03T10:04:50.754Z,68.00
2022-09-03T10:07:28.346Z,64.10
2022-09-03T10:10:21.237Z,59.40
2022-09-03T10:12:59.342Z,63.10
2022-09-03T10:15:36.518Z,72.60
2022-09-03T10:18:16.391Z,72.00
2022-09-03T10:20:44.437Z,77.30
2022-09-03T10:23:18.966Z,87.10
2022-09-03T10:26:08.062Z,93.20
2022-09-03T10:28:43.977Z,94.40
2022-09-03T10:31:37.130Z,98.70
2022-09-03T10:34:23.202Z,99.90
2022-09-03T10:37:06.633Z,99.90
2022-09-03T10:39:42.889Z,99.90
2022-09-03T10:42:35.918Z,99.90
2022-09-03T10:45:31.035Z,99.90
2022-09-03T10:48:07.411Z,99.90
2022-09-03T10:51:13.361Z,99.90
2022-09-03T10:54:10.421Z,99.90
2022-09-03T10:56:56.439Z,99.90
2022-09-03T10:59:33.723Z,99.90
2022-09-03T11:02:41.458Z,99.90
2022-09-03T11:05:13.489Z,99.90
2022-09-03T11:07:58.647Z,99.90
2022-09-03T11:10:34.693Z,99.90
2022-09-03T11:13:26.947Z,99.90
2022-09-03T11:15:59.482Z,99.90
2022-09-03T11:18:38.484Z,99.90
2022-09-03T11:21:12.347Z,99.90
2022-09-03T11:23:44.535Z,99.90
2022-09-03T11:26:15.629Z,99.90
2022-09-03T11:28:49.181Z,99.90
2022-09-03T11:31:27.080Z,99.90
2022-09-03T11:34:05.667Z,99.90
2022-09-03T11:36:39.293Z,99.90
2022-09-03T11:39:39.784Z,99.90
2022-09-03T11:42:24.161Z,99.90
2022-09-03T11:44:52.159Z,99.90
2022-09-03T11:47:24.541Z,99.90
2022-09-03T11:49:53.932Z,99.90
2022-09-03T11:52:40.715Z,99.90
2022-09-03T11:55:08.782Z,99.90
2022-09-03T11:57:45.789Z,99.90
2022-09-03T12:00:21.439Z,99.90
2022-09-03T12:02:58.640Z,99.90
2022-09-03T12:05:29.158Z,99.90
2022-09-03T12:08:08.160Z,99.90
2022-09-03T12:10:59.505Z,99.90
2022-09-03T12:13:42.196Z,99.90
2022-09-03T12:16:37.029Z,99.90
2022-09-03T12:19:16.726Z,99.90
2022-09-03T12:21:51.151Z,99.90
2022-09-03T12:24:20.353Z,99.90
2022-09-03T12:26:48.074Z,99.90
2022-09-03T12:29:27.719Z,99.90
2022-09-03T12:31:56.576Z,99.90
2022-09-03T12:34:26.517Z,99.90
2022-09-03T12:36:55.027Z,99.90
2022-09-03T12:42:29.980Z,99.90
2022-09-03T12:45:06.624Z,99.90
2022-09-03T12:47:39.920Z,99.90
2022-09-03T12:50:20.220Z,99.90
2022-09-03T12:52:59.399Z,99.90
2022-09-03T12:55:43.099Z,99.90
2022-09-03T12:58:19.445Z,99.90
2022-09-03T13:00:48.044Z,99.90
2022-09-03T13:03:28.536Z,99.90
2022-09-03T13:06:00.087Z,99.90
2022-09-03T13:08:32.249Z,99.90
2022-09-03T13:11:03.858Z,99.90
2022-09-03T13:13:37.311Z,99.90
2022-09-03T13:16:07.651Z,99.90
2022-09-03T13:18:57.190Z,99.90
2022-09-03T13:21:53.744Z,99.90
2022-09-03T13:24:39.949Z,99.90
2022-09-03T13:27:08.639Z,99.90
2022-09-03T13:29:43.771Z,99.90
2022-09-03T13:32:40.956Z,99.90
2022-09-03T13:35:26.214Z,99.90
2022-09-03T13:38:37.149Z,99.90
2022-09-03T13:41:34.646Z,99.90
2022-09-03T13:44:32.307Z,99.90
2022-09-03T13:47:12.850Z,99.90
2022-09-03T13:50:03.444Z,99.90
2022-09-03T13:52:59.901Z,99.90
2022-09-03T13:55:43.746Z,99.90
2022-09-03T13:58:32.056Z,99.90
2022-09-03T14:00:59.391Z,99.90
2022-09-03T14:03:54.584Z,99.90
2022-09-03T14:06:45.247Z,99.90
2022-09-03T14:09:23.800Z,99.90
2022-09-03T14:12:16.240Z,99.90
2022-09-03T14:14:55.321Z,99.90
2022-09-03T14:17:37.825Z,99.90
2022-09-03T14:20:13.716Z,99.90
2022-09-03T14:23:08.002Z,99.90
2022-09-03T14:25:35.143Z,99.90
2022-09-03T14:28:40.409Z,99.90
2022-09-03T14:31:22.632Z,99.90
2022-09-03T14:34:11.762Z,99.90
2022-09-03T14:36:53.374Z,99.90
2022-09-03T14:39:55.969Z,99.90
2022-09-03T14:42:39.027Z,99.90
2022-09-03T14:45:33.709Z,99.90
2022-09-03T14:48:28.439Z,99.90
2022-09-03T14:51:19.180Z,99.90
2022-09-03T14:54:25.222Z,99.90
2022-09-03T14:57:13.474Z,99.90
2022-09-03T14:59:49.285Z,99.90
2022-09-03T15:02:28.408Z,99.90
2022-09-03T15:05:11.621Z,99.90
2022-09-03T15:07:53.183Z,99.90
2022-09-03T15:10:56.887Z,99.90
2022-09-03T15:13:36.065Z,99.90
2022-09-03T15:16:09.317Z,99.90
2022-09-03T15:18:58.778Z,99.90
2022-09-03T15:21:47.434Z,99.90
2022-09-03T15:24:33.421Z,99.90
2022-09-03T15:27:20.749Z,99.90
2022-09-03T15:30:12.393Z,99.90
2022-09-03T15:33:22.649Z,99.90
2022-09-03T15:35:57.015Z,99.90
2022-09-03T15:38:48.163Z,99.90
2022-09-03T15:41:46.659Z,99.90
2022-09-03T15:44:19.516Z,99.90
2022-09-03T15:46:54.577Z,99.90
2022-09-03T15:49:44.419Z,99.90
2022-09-03T15:52:30.732Z,99.90
2022-09-03T15:55:16.936Z,99.90
2022-09-03T15:58:09.780Z,99.90
2022-09-03T16:00:52.069Z,99.90
2022-09-03T16:03:59.481Z,99.90
2022-09-03T16:06:41.897Z,99.90
2022-09-03T16:09:32.718Z,99.90
2022-09-03T16:12:20.130Z,99.90
2022-09-03T16:15:16.148Z,99.90
2022-09-03T16:18:11.878Z,99.90
2022-09-03T16:20:46.175Z,99.90
2022-09-03T16:23:23.815Z,99.90
2022-09-03T16:26:33.822Z,99.90
2022-09-03T16:29:11.864Z,99.90
2022-09-03T16:32:02.972Z,99.90
2022-09-03T16:34:56.730Z,99.90
2022-09-03T16:37:29.179Z,99.90
2022-09-03T16:40:26.557Z,99.90
2022-09-03T16:43:36.871Z,99.90
2022-09-03T16:46:11.736Z,99.90
2022-09-03T16:48:59.376Z,99.90
2022-09-03T16:51:54.922Z,99.90
2022-09-03T16:54:39.286Z,99.90
2022-09-03T16:57:45.060Z,99.90
2022-09-03T17:00:21.067Z,99.90
2022-09-03T17:03:26.213Z,99.90
2022-09-03T17:06:02.848Z,99.90
2022-09-03T17:08:51.155Z,99.90
2022-09-03T17:11:40.493Z,99.90
2022-09-03T17:14:38.451Z,99.90
2022-09-03T17:17:07.592Z,99.90
2022-09-03T17:19:54.142Z,99.90
2022-09-03T17:22:51.414Z,99.90
2022-09-03T17:25:38.786Z,99.90
2022-09-03T17:28:25.309Z,99.90
2022-09-03T17:31:16.192Z,99.90
2022-09-03T17:33:56.324Z,99.90
2022-09-03T17:36:32.937Z,99.90
2022-09-03T17:39:12.360Z,99.90
2022-09-03T17:41:46.918Z,99.90
2022-09-03T17:44:32.537Z,99.90
2022-09-03T17:47:23.853Z,99.90
2022-09-03T17:50:01.849Z,99.90
2022-09-03T17:52:41.897Z,99.90
2022-09-03T17:55:22.174Z,99.90
2022-09-03T17:57:57.213Z,99.90
2022-09-03T18:00:35.095Z,99.90
2022-09-03T18:03:07.594Z,99.90
2022-09-03T18:05:49.835Z,99.90
2022-09-03T18:08:27.180Z,99.90
2022-09-03T18:11:40.301Z,99.90
2022-09-03T18:14:28.711Z,99.90
2022-09-03T18:17:09.802Z,99.90
2022-09-03T18:20:02.637Z,99.90
2022-09-03T18:23:15.393Z,99.90
2022-09-03T18:26:05.268Z,99.90
2022-09-03T18:29:08.890Z,99.90
2022-09-03T18:31:54.325Z,99.90
2022-09-03T18:34:48.048Z,99.90
2022-09-03T18:37:38.431Z,99.90
2022-09-03T18:40:26.844Z,99.90
2022-09-03T18:43:31.956Z,99.90
2022-09-03T18:47:16.483Z,99.90
2022-09-03T18:49:51.702Z,99.90
2022-09-03T18:52:49.474Z,99.90
2022-09-03T18:55:54.354Z,99.90
2022-09-03T18:59:04.431Z,99.90
2022-09-03T19:01:58.576Z,99.90
2022-09-03T19:05:10.944Z,99.90
2022-09-03T19:08:02.773Z,99.90
2022-09-03T19:11:01.675Z,99.90
2022-09-03T19:13:58.465Z,99.90
2022-09-03T19:17:13.330Z,99.90
2022-09-03T19:20:20.703Z,99.90
2022-09-03T19:23:06.410Z,99.90
2022-09-03T19:25:51.981Z,99.90
2022-09-03T19:28:38.836Z,99.90
2022-09-03T19:31:27.302Z,99.90
2022-09-03T19:34:49.677Z,99.90
2022-09-03T19:37:40.381Z,99.90
2022-09-03T19:40:51.056Z,99.90
2022-09-03T19:43:54.129Z,99.90
2022-09-03T19:47:13.974Z,99.90
2022-09-03T19:50:22.156Z,99.90
2022-09-03T19:53:10.328Z,99.90
2022-09-03T19:56:07.157Z,99.90
2022-09-03T19:58:56.899Z,99.90
2022-09-03T20:01:49.990Z,99.90
2022-09-03T20:04:35.805Z,99.90
2022-09-03T20:07:27.134Z,99.90
2022-09-03T20:10:17.436Z,99.90
2022-09-03T20:12:49.636Z,99.90
2022-09-03T20:15:16.474Z,99.90
2022-09-03T20:18:02.322Z,99.90
2022-09-03T20:20:36.381Z,99.90
2022-09-03T20:23:29.228Z,99.90
2022-09-03T20:26:13.964Z,99.90
2022-09-03T20:29:07.063Z,99.90
2022-09-03T20:31:58.380Z,99.90
2022-09-03T20:34:47.201Z,99.90
2022-09-03T20:37:25.758Z,99.90
2022-09-03T20:40:15.818Z,99.90
2022-09-03T20:43:07.957Z,99.90
2022-09-03T20:45:49.610Z,99.90
2022-09-03T20:48:30.872Z,99.90
2022-09-03T20:51:12.219Z,99.90
2022-09-03T20:53:54.939Z,99.90
2022-09-03T20:56:24.850Z,99.90
2022-09-03T20:59:02.484Z,99.90
2022-09-03T21:01:45.643Z,99.90
2022-09-03T21:04:43.004Z,99.90
2022-09-03T21:07:45.995Z,99.90
2022-09-03T21:10:31.924Z,99.90
2022-09-03T21:13:17.281Z,99.90
2022-09-03T21:16:00.231Z,99.90
2022-09-03T21:18:38.879Z,99.90
2022-09-03T21:21:05.652Z,99.90
2022-09-03T21:23:39.033Z,99.90
2022-09-03T21:26:34.765Z,99.90
2022-09-03T21:29:22.170Z,99.90
2022-09-03T21:31:57.163Z,99.90
2022-09-03T21:34:41.180Z,99.90
2022-09-03T21:37:11.473Z,99.90
2022-09-03T21:39:50.971Z,99.90
2022-09-03T21:42:36.511Z,99.90
2022-09-03T21:45:23.760Z,99.90
2022-09-03T21:47:58.800Z,99.90
2022-09-03T21:50:42.051Z,99.90
2022-09-03T21:53:24.511Z,99.90
2022-09-03T21:56:16.264Z,99.90
2022-09-03T21:59:06.974Z,99.90
2022-09-03T22:01:47.592Z,99.90
2022-09-03T22:04:14.750Z,99.90
2022-09-03T22:07:12.520Z,99.90
2022-09-03T22:09:53.129Z,99.90
2022-09-03T22:12:37.008Z,99.90
2022-09-03T22:15:10.064Z,99.90
2022-09-03T22:17:49.221Z,99.90
2022-09-03T22:20:18.233Z,99.90
2022-09-03T22:22:56.514Z,99.90
2022-09-03T22:25:52.387Z,99.90
2022-09-03T22:28:25.607Z,99.90
2022-09-03T22:31:08.718Z,99.90
2022-09-03T22:33:50.729Z,99.90
2022-09-03T22:36:27.251Z,99.90
2022-09-03T22:39:12.767Z,99.90
2022-09-03T22:42:08.342Z,99.90
2022-09-03T22:44:54.813Z,99.90
2022-09-03T22:47:40.461Z,99.90
2022-09-03T22:50:26.927Z,99.90
2022-09-03T22:53:21.463Z,99.90
2022-09-03T22:56:14.990Z,99.90
2022-09-03T22:58:55.718Z,99.90
2022-09-03T23:01:34.864Z,99.90
2022-09-03T23:04:24.334Z,99.90
2022-09-03T23:06:58.925Z,99.90
2022-09-03T23:09:31.088Z,99.90
2022-09-03T23:12:01.220Z,99.90
2022-09-03T23:14:34.848Z,99.90
2022-09-03T23:17:13.206Z,99.90
2022-09-03T23:19:43.006Z,99.90
2022-09-03T23:22:17.864Z,99.90
2022-09-03T23:25:02.646Z,99.90
2022-09-03T23:27:41.704Z,99.90
2022-09-03T23:30:08.850Z,99.90
2022-09-03T23:32:35.607Z,99.90
2022-09-03T23:35:10.112Z,99.90
2022-09-03T23:37:53.625Z,99.90
2022-09-03T23:40:37.204Z,99.90
2022-09-03T23:43:49.067Z,99.90
2022-09-03T23:46:21.681Z,99.90
2022-09-03T23:49:13.945Z,99.90
2022-09-03T23:52:13.127Z,99.90
2022-09-03T23:54:45.399Z,99.90
2022-09-03T23:57:29.167Z,99.90
